createdAt,value
2023-05-21T00:00:30.249Z,12.80
2023-05-21T00:02:59.462Z,12.75
2023-05-21T00:05:26.933Z,10.90
2023-05-21T00:07:55.052Z,12.93
2023-05-21T00:10:22.473Z,13.40
2023-05-21T00:12:49.798Z,12.63
2023-05-21T00:15:17.063Z,11.10
2023-05-21T00:17:46.082Z,12.50
2023-05-21T00:20:13.593Z,11.48
2023-05-21T00:22:42.569Z,18.58
2023-05-21T00:25:10.530Z,13.68
2023-05-21T00:27:38.031Z,11.60
2023-05-21T00:30:05.808Z,12.45
2023-05-21T00:32:33.128Z,16.00
2023-05-21T00:35:00.372Z,15.40
2023-05-21T00:37:29.879Z,13.48
2023-05-21T00:39:59.693Z,17.30
2023-05-21T00:42:27.609Z,11.95
2023-05-21T00:44:54.751Z,14.15
2023-05-21T00:47:22.298Z,14.88
2023-05-21T00:49:52.949Z,16.58
2023-05-21T00:52:21.978Z,13.07
2023-05-21T00:54:52.523Z,13.30
2023-05-21T00:57:23.527Z,14.73
2023-05-21T00:59:52.314Z,12.68
2023-05-21T01:02:19.929Z,13.80
2023-05-21T01:04:47.201Z,13.65
2023-05-21T01:07:14.691Z,12.75
2023-05-21T01:09:43.222Z,12.85
2023-05-21T01:12:10.849Z,14.68
2023-05-21T01:14:38.492Z,13.00
2023-05-21T01:17:06.430Z,15.60
2023-05-21T01:19:35.649Z,12.40
2023-05-21T01:22:07.896Z,12.57
2023-05-21T01:24:35.240Z,14.50
2023-05-21T01:27:03.441Z,16.27
2023-05-21T01:29:30.768Z,13.85
2023-05-21T01:31:57.894Z,13.32
2023-05-21T01:34:28.124Z,16.52
2023-05-21T01:37:01.592Z,12.40
2023-05-21T01:39:30.641Z,16.38
2023-05-21T01:41:58.290Z,14.88
2023-05-21T01:44:26.659Z,12.38
2023-05-21T01:46:54.708Z,16.83
2023-05-21T01:49:22.748Z,12.60
2023-05-21T01:51:50.799Z,15.30
2023-05-21T01:54:17.958Z,13.48
2023-05-21T01:56:45.218Z,16.15
2023-05-21T01:59:12.370Z,16.92
2023-05-21T02:01:39.669Z,14.65
2023-05-21T02:04:06.983Z,15.23
2023-05-21T02:06:35.912Z,13.88
2023-05-21T02:09:03.878Z,13.32
2023-05-21T02:11:31.367Z,14.82
2023-05-21T02:13:58.665Z,16.17
2023-05-21T02:16:26.143Z,15.70
2023-05-21T02:18:57.377Z,16.08
2023-05-21T02:21:24.703Z,16.13
2023-05-21T02:23:51.928Z,18.08
2023-05-21T02:26:19.107Z,17.80
2023-05-21T02:28:46.266Z,14.50
2023-05-21T02:31:13.555Z,13.35
2023-05-21T02:33:41.875Z,12.77
2023-05-21T02:36:13.133Z,14.48
2023-05-21T02:38:43.633Z,13.40
2023-05-21T02:41:11.631Z,12.68
2023-05-21T02:43:38.869Z,13.80
2023-05-21T02:46:07.714Z,13.00
2023-05-21T02:48:35.082Z,15.52
2023-05-21T02:51:02.343Z,14.52
2023-05-21T02:53:29.529Z,13.75
2023-05-21T02:55:56.922Z,12.93
2023-05-21T02:58:25.271Z,12.85
2023-05-21T03:00:53.706Z,20.05
2023-05-21T03:03:21.456Z,16.48
2023-05-21T03:05:49.062Z,16.42
2023-05-21T03:08:16.999Z,13.32
2023-05-21T03:10:44.264Z,14.82
2023-05-21T03:13:11.548Z,15.07
2023-05-21T03:15:39.460Z,13.50
2023-05-21T03:18:07.016Z,17.48
2023-05-21T03:20:34.357Z,16.20
2023-05-21T03:23:04.332Z,14.25
2023-05-21T03:25:31.654Z,15.90
2023-05-21T03:27:58.844Z,14.57
2023-05-21T03:30:26.009Z,16.38
2023-05-21T03:32:53.288Z,17.60
2023-05-21T03:35:20.568Z,16.90
2023-05-21T03:37:47.755Z,14.68
2023-05-21T03:40:14.921Z,15.32
2023-05-21T03:42:42.136Z,14.20
2023-05-21T03:45:09.542Z,14.88
2023-05-21T03:47:36.738Z,15.07
2023-05-21T03:50:05.681Z,15.98
2023-05-21T03:52:32.899Z,14.10
2023-05-21T03:55:00.177Z,18.17
2023-05-21T03:57:27.508Z,14.88
2023-05-21T03:59:54.718Z,14.70
2023-05-21T04:02:23.069Z,15.35
2023-05-21T04:04:51.681Z,14.65
2023-05-21T04:07:19.245Z,16.52
2023-05-21T04:09:47.001Z,13.35
2023-05-21T04:12:14.594Z,16.30
2023-05-21T04:14:42.020Z,17.98
2023-05-21T04:17:09.811Z,15.75
2023-05-21T04:19:37.055Z,16.83
2023-05-21T04:22:04.428Z,14.52
2023-05-21T04:24:31.790Z,13.38
2023-05-21T04:27:01.512Z,16.05
2023-05-21T04:29:29.964Z,14.35
2023-05-21T04:31:57.266Z,13.93
2023-05-21T04:34:24.880Z,13.77
2023-05-21T04:36:52.075Z,13.48
2023-05-21T04:39:19.301Z,13.57
2023-05-21T04:41:46.512Z,12.93
2023-05-21T04:44:15.134Z,12.52
2023-05-21T04:46:42.824Z,14.00
2023-05-21T04:49:10.446Z,14.05
2023-05-21T04:51:38.134Z,13.32
2023-05-21T04:54:05.358Z,13.43
2023-05-21T04:56:32.764Z,16.13
2023-05-21T04:59:00.078Z,12.60
2023-05-21T05:01:29.666Z,13.30
2023-05-21T05:03:57.131Z,14.73
2023-05-21T05:06:26.009Z,14.57
2023-05-21T05:08:53.202Z,15.20
2023-05-21T05:11:20.878Z,16.02
2023-05-21T05:13:48.065Z,13.70
2023-05-21T05:16:17.903Z,12.57
2023-05-21T05:18:45.282Z,13.20
2023-05-21T05:21:12.535Z,12.63
2023-05-21T05:23:39.730Z,12.38
2023-05-21T05:26:06.948Z,15.77
2023-05-21T05:28:34.160Z,12.57
2023-05-21T05:31:01.453Z,13.43
2023-05-21T05:33:28.732Z,13.65
2023-05-21T05:35:56.057Z,14.30
2023-05-21T05:38:23.275Z,13.85
2023-05-21T05:40:50.601Z,11.93
2023-05-21T05:43:17.834Z,12.35
2023-05-21T05:45:45.017Z,12.63
2023-05-21T05:48:12.957Z,14.30
2023-05-21T05:50:40.172Z,12.32
2023-05-21T05:53:07.382Z,14.35
2023-05-21T05:55:34.926Z,11.02
2023-05-21T05:58:02.350Z,13.02
2023-05-21T06:00:29.602Z,12.63
2023-05-21T06:02:56.980Z,10.48
2023-05-21T06:05:24.306Z,12.48
2023-05-21T06:07:51.526Z,10.30
2023-05-21T06:10:20.565Z,11.50
2023-05-21T06:12:47.895Z,12.27
2023-05-21T06:15:16.543Z,11.52
2023-05-21T06:17:43.835Z,10.15
2023-05-21T06:20:11.556Z,12.02
2023-05-21T06:22:38.965Z,11.80
2023-05-21T06:25:06.949Z,11.77
2023-05-21T06:27:34.258Z,11.35
2023-05-21T06:30:01.448Z,10.18
2023-05-21T06:32:28.792Z,10.45
2023-05-21T06:34:56.176Z,13.50
2023-05-21T06:37:25.271Z,10.93
2023-05-21T06:39:53.753Z,10.13
2023-05-21T06:42:21.442Z,10.00
2023-05-21T06:44:48.633Z,12.05
2023-05-21T06:47:15.943Z,10.80
2023-05-21T06:49:43.224Z,10.65
2023-05-21T06:52:11.268Z,11.18
2023-05-21T06:54:38.451Z,10.35
2023-05-21T06:57:06.063Z,11.32
2023-05-21T06:59:33.305Z,9.80
2023-05-21T07:02:02.399Z,11.95
2023-05-21T07:04:31.030Z,10.15
2023-05-21T07:06:58.393Z,10.35
2023-05-21T07:09:25.772Z,9.50
2023-05-21T07:11:55.731Z,9.52
2023-05-21T07:14:22.931Z,8.98
2023-05-21T07:16:50.257Z,12.10
2023-05-21T07:19:17.500Z,9.68
2023-05-21T07:21:44.758Z,10.50
2023-05-21T07:24:11.983Z,9.50
2023-05-21T07:26:39.230Z,10.07
2023-05-21T07:29:06.416Z,9.07
2023-05-21T07:31:33.713Z,11.10
2023-05-21T07:34:01.101Z,12.40
2023-05-21T07:36:28.513Z,9.25
2023-05-21T07:38:55.974Z,8.50
2023-05-21T07:41:23.181Z,9.23
2023-05-21T07:43:50.452Z,11.10
2023-05-21T07:46:17.755Z,8.35
2023-05-21T07:48:45.038Z,9.27
2023-05-21T07:51:12.298Z,9.20
2023-05-21T07:53:39.621Z,7.97
2023-05-21T07:56:06.974Z,11.02
2023-05-21T07:58:35.296Z,9.45
2023-05-21T08:01:02.835Z,9.00
2023-05-21T08:03:31.006Z,8.80
2023-05-21T08:05:58.437Z,7.78
2023-05-21T08:08:26.034Z,10.02
2023-05-21T08:10:53.283Z,7.70
2023-05-21T08:13:20.572Z,7.53
2023-05-21T08:15:51.241Z,9.02
2023-05-21T08:18:19.959Z,9.27
2023-05-21T08:20:48.331Z,7.18
2023-05-21T08:23:15.600Z,7.32
2023-05-21T08:25:42.780Z,8.55
2023-05-21T08:28:09.974Z,9.18
2023-05-21T08:30:37.319Z,8.25
2023-05-21T08:33:04.619Z,8.18
2023-05-21T08:35:31.968Z,10.80
2023-05-21T08:37:59.585Z,6.82
2023-05-21T08:40:26.815Z,7.90
2023-05-21T08:42:54.196Z,7.53
2023-05-21T08:45:22.381Z,7.65
2023-05-21T08:47:53.205Z,10.38
2023-05-21T08:50:20.552Z,8.23
2023-05-21T08:52:47.883Z,7.78
2023-05-21T08:55:15.190Z,7.50
2023-05-21T08:57:43.634Z,7.45
2023-05-21T09:00:11.871Z,8.32
2023-05-21T09:02:43.811Z,7.95
2023-05-21T09:05:11.476Z,9.60
2023-05-21T09:07:44.574Z,6.97
2023-05-21T09:10:13.715Z,7.90
2023-05-21T09:12:41.381Z,10.65
2023-05-21T09:15:08.799Z,8.77
2023-05-21T09:17:36.529Z,7.15
2023-05-21T09:20:15.176Z,9.70
2023-05-21T09:22:49.267Z,10.10
2023-05-21T09:25:17.609Z,9.15
2023-05-21T09:27:45.032Z,8.80
2023-05-21T09:30:13.461Z,9.88
2023-05-21T09:32:41.358Z,7.45
2023-05-21T09:35:15.864Z,7.50
2023-05-21T09:37:44.034Z,6.72
2023-05-21T09:40:11.777Z,8.10
2023-05-21T09:42:47.176Z,8.10
2023-05-21T09:45:18.756Z,9.38
2023-05-21T09:47:46.847Z,7.38
2023-05-21T09:50:14.533Z,10.68
2023-05-21T09:52:42.332Z,9.13
2023-05-21T09:55:13.226Z,9.45
2023-05-21T09:57:49.792Z,7.85
2023-05-21T10:00:19.102Z,10.55
2023-05-21T10:02:47.755Z,7.60
2023-05-21T10:05:16.041Z,6.82
2023-05-21T10:07:50.292Z,6.78
2023-05-21T10:10:19.762Z,9.77
2023-05-21T10:12:48.149Z,6.40
2023-05-21T10:15:17.353Z,6.57
2023-05-21T10:17:45.960Z,6.75
2023-05-21T10:20:13.394Z,7.35
2023-05-21T10:22:41.177Z,8.13
2023-05-21T10:25:09.095Z,6.93
2023-05-21T10:27:40.051Z,7.97
2023-05-21T10:30:07.634Z,9.55
2023-05-21T10:32:35.263Z,7.18
2023-05-21T10:35:03.053Z,7.03
2023-05-21T10:37:30.524Z,8.00
2023-05-21T10:39:57.869Z,10.48
2023-05-21T10:42:28.111Z,9.50
2023-05-21T10:45:01.431Z,8.50
2023-05-21T10:47:47.370Z,7.32
2023-05-21T10:50:27.670Z,7.22
2023-05-21T10:53:01.095Z,9.15
2023-05-21T10:55:34.304Z,8.63
2023-05-21T10:58:11.336Z,11.32
2023-05-21T11:00:38.932Z,7.90
2023-05-21T11:03:07.158Z,8.38
2023-05-21T11:05:53.306Z,8.25
2023-05-21T11:08:37.571Z,8.32
2023-05-21T11:11:05.248Z,6.25
2023-05-21T11:13:49.147Z,7.28
2023-05-21T11:16:16.960Z,9.23
2023-05-21T11:18:44.146Z,6.25
2023-05-21T11:21:12.478Z,7.57
2023-05-21T11:23:49.705Z,7.65
2023-05-21T11:26:21.602Z,6.15
2023-05-21T11:29:04.157Z,7.60
2023-05-21T11:31:38.794Z,5.57
2023-05-21T11:34:32.181Z,6.68
2023-05-21T11:37:23.217Z,6.40
2023-05-21T11:39:51.223Z,5.65
2023-05-21T11:42:31.748Z,5.90
2023-05-21T11:44:59.398Z,5.75
2023-05-21T11:47:27.570Z,6.95
2023-05-21T11:49:54.925Z,6.30
2023-05-21T11:52:22.267Z,6.38
2023-05-21T11:54:51.920Z,8.05
2023-05-21T11:57:19.883Z,5.95
2023-05-21T11:59:47.397Z,6.75
2023-05-21T12:02:21.627Z,5.78
2023-05-21T12:04:49.989Z,6.82
2023-05-21T12:07:19.130Z,5.40
2023-05-21T12:09:47.220Z,7.55
2023-05-21T12:12:18.865Z,7.68
2023-05-21T12:14:47.770Z,6.32
2023-05-21T12:17:25.002Z,9.10
2023-05-21T12:19:56.881Z,8.98
2023-05-21T12:22:24.707Z,7.70
2023-05-21T12:24:53.910Z,7.85
2023-05-21T12:27:22.216Z,7.47
2023-05-21T12:29:52.776Z,9.13
2023-05-21T12:32:20.744Z,5.72
2023-05-21T12:34:49.717Z,5.95
2023-05-21T12:37:23.992Z,9.10
2023-05-21T12:39:51.758Z,9.20
2023-05-21T12:42:40.138Z,8.02
2023-05-21T12:45:08.467Z,7.32
2023-05-21T12:47:35.888Z,7.38
2023-05-21T12:50:14.067Z,6.07
2023-05-21T12:52:44.937Z,8.70
2023-05-21T12:55:14.588Z,9.38
2023-05-21T12:57:43.910Z,12.63
2023-05-21T13:00:11.828Z,7.35
2023-05-21T13:02:40.374Z,6.97
2023-05-21T13:05:11.673Z,6.70
2023-05-21T13:07:41.217Z,6.65
2023-05-21T13:10:08.704Z,7.53
2023-05-21T13:12:36.355Z,7.43
2023-05-21T13:15:04.896Z,7.10
2023-05-21T13:17:32.287Z,7.75
2023-05-21T13:20:16.149Z,7.30
2023-05-21T13:22:46.819Z,9.70
2023-05-21T13:25:20.291Z,9.15
2023-05-21T13:27:48.456Z,6.78
2023-05-21T13:30:15.856Z,8.95
2023-05-21T13:32:43.710Z,7.60
2023-05-21T13:35:12.087Z,6.60
2023-05-21T13:37:40.095Z,7.32
2023-05-21T13:40:08.056Z,9.70
2023-05-21T13:42:37.717Z,7.25
2023-05-21T13:45:06.072Z,7.47
2023-05-21T13:47:33.638Z,6.93
2023-05-21T13:50:01.357Z,7.75
2023-05-21T13:52:28.587Z,10.13
2023-05-21T13:54:55.918Z,7.53
2023-05-21T13:57:23.163Z,7.20
2023-05-21T13:59:50.868Z,7.55
2023-05-21T14:02:18.297Z,7.00
2023-05-21T14:04:45.602Z,6.80
2023-05-21T14:07:12.890Z,6.85
2023-05-21T14:09:40.326Z,7.50
2023-05-21T14:12:07.607Z,6.75
2023-05-21T14:14:35.094Z,7.00
2023-05-21T14:17:02.324Z,6.45
2023-05-21T14:19:29.829Z,8.07
2023-05-21T14:21:57.182Z,6.07
2023-05-21T14:24:24.401Z,5.85
2023-05-21T14:26:51.645Z,5.43
2023-05-21T14:29:18.914Z,6.22
2023-05-21T14:31:46.407Z,10.93
2023-05-21T14:34:13.707Z,6.75
2023-05-21T14:36:41.028Z,7.22
2023-05-21T14:39:08.361Z,11.13
2023-05-21T14:41:39.834Z,6.85
2023-05-21T14:44:07.155Z,9.45
2023-05-21T14:46:34.554Z,12.40
2023-05-21T14:49:03.338Z,6.72
2023-05-21T14:51:31.609Z,6.82
2023-05-21T14:54:03.263Z,15.88
2023-05-21T14:56:30.629Z,6.65
2023-05-21T14:58:57.789Z,7.47
2023-05-21T15:01:25.089Z,9.43
2023-05-21T15:03:52.421Z,9.45
2023-05-21T15:06:19.661Z,5.93
2023-05-21T15:08:46.884Z,5.95
2023-05-21T15:11:14.117Z,6.28
2023-05-21T15:13:41.272Z,6.40
2023-05-21T15:16:08.594Z,7.28
2023-05-21T15:18:35.944Z,5.93
2023-05-21T15:21:03.315Z,8.75
2023-05-21T15:23:30.632Z,12.98
2023-05-21T15:25:57.946Z,8.73
2023-05-21T15:28:25.249Z,6.47
2023-05-21T15:30:52.500Z,6.72
2023-05-21T15:33:19.730Z,7.53
2023-05-21T15:35:47.106Z,4.78
2023-05-21T15:38:14.423Z,8.10
2023-05-21T15:40:42.032Z,5.95
2023-05-21T15:43:09.441Z,6.38
2023-05-21T15:45:36.895Z,6.65
2023-05-21T15:48:04.469Z,6.72
2023-05-21T15:50:31.718Z,7.57
2023-05-21T15:52:58.929Z,6.72
2023-05-21T15:55:26.149Z,8.05
2023-05-21T15:57:53.436Z,9.18
2023-05-21T16:00:20.592Z,7.53
2023-05-21T16:02:47.985Z,8.05
2023-05-21T16:05:15.425Z,8.52
2023-05-21T16:07:43.185Z,7.13
2023-05-21T16:10:10.776Z,10.70
2023-05-21T16:12:37.986Z,7.32
2023-05-21T16:15:05.585Z,7.03
2023-05-21T16:17:32.809Z,9.98
2023-05-21T16:20:00.102Z,8.18
2023-05-21T16:22:27.489Z,7.60
2023-05-21T16:24:55.709Z,7.40
2023-05-21T16:27:22.910Z,7.53
2023-05-21T16:29:50.104Z,7.18
2023-05-21T16:32:17.426Z,11.85
2023-05-21T16:34:44.952Z,8.70
2023-05-21T16:37:12.224Z,10.55
2023-05-21T16:39:39.479Z,6.43
2023-05-21T16:42:06.702Z,8.13
2023-05-21T16:44:33.911Z,7.60
2023-05-21T16:47:01.971Z,8.25
2023-05-21T16:49:29.142Z,6.78
2023-05-21T16:51:56.414Z,10.43
2023-05-21T16:54:23.673Z,6.90
2023-05-21T16:56:51.004Z,8.00
2023-05-21T16:59:18.228Z,7.50
2023-05-21T17:01:45.462Z,8.55
2023-05-21T17:04:12.731Z,9.48
2023-05-21T17:06:39.904Z,9.50
2023-05-21T17:09:07.131Z,11.40
2023-05-21T17:11:35.158Z,9.00
2023-05-21T17:14:02.410Z,8.43
2023-05-21T17:16:29.723Z,7.22
2023-05-21T17:18:56.979Z,7.47
2023-05-21T17:21:26.070Z,9.70
2023-05-21T17:23:53.286Z,7.60
2023-05-21T17:26:21.760Z,10.18
2023-05-21T17:28:48.968Z,9.27
2023-05-21T17:31:16.428Z,7.72
2023-05-21T17:33:43.707Z,8.95
2023-05-21T17:36:10.896Z,9.93
2023-05-21T17:38:38.125Z,9.07
2023-05-21T17:41:05.577Z,10.63
2023-05-21T17:43:32.904Z,13.30
2023-05-21T17:46:00.149Z,11.55
2023-05-21T17:48:27.412Z,8.43
2023-05-21T17:50:54.622Z,9.95
2023-05-21T17:53:22.831Z,8.68
2023-05-21T17:55:50.090Z,8.38
2023-05-21T17:58:17.262Z,8.88
2023-05-21T18:00:44.555Z,7.82
2023-05-21T18:03:11.896Z,8.90
2023-05-21T18:05:39.296Z,10.43
2023-05-21T18:08:07.074Z,8.25
2023-05-21T18:10:34.351Z,9.55
2023-05-21T18:13:01.588Z,11.05
2023-05-21T18:15:28.883Z,13.35
2023-05-21T18:17:56.265Z,11.52
2023-05-21T18:20:23.535Z,10.45
2023-05-21T18:22:50.784Z,10.30
2023-05-21T18:25:18.123Z,12.70
2023-05-21T18:27:46.234Z,13.85
2023-05-21T18:30:13.673Z,11.15
2023-05-21T18:32:40.958Z,9.98
2023-05-21T18:35:12.011Z,10.30
2023-05-21T18:37:44.315Z,10.75
2023-05-21T18:40:12.300Z,10.10
2023-05-21T18:42:39.743Z,11.57
2023-05-21T18:45:08.511Z,9.15
2023-05-21T18:47:35.957Z,10.02
2023-05-21T18:50:03.230Z,8.82
2023-05-21T18:52:30.441Z,11.25
2023-05-21T18:54:57.629Z,10.77
2023-05-21T18:57:24.861Z,11.48
2023-05-21T18:59:52.112Z,13.70
2023-05-21T19:02:19.404Z,8.60
2023-05-21T19:04:46.704Z,11.32
2023-05-21T19:07:15.807Z,10.65
2023-05-21T19:09:43.076Z,11.85
2023-05-21T19:12:10.507Z,13.32
2023-05-21T19:14:38.454Z,24.10
2023-05-21T19:17:06.533Z,56.42
2023-05-21T19:19:33.790Z,57.50
2023-05-21T19:22:01.065Z,16.02
2023-05-21T19:24:28.243Z,11.65
2023-05-21T19:26:55.635Z,11.43
2023-05-21T19:29:23.057Z,9.73
2023-05-21T19:31:50.625Z,11.32
2023-05-21T19:34:17.928Z,10.40
2023-05-21T19:36:52.792Z,14.00
2023-05-21T19:39:20.943Z,11.73
2023-05-21T19:41:48.142Z,12.27
2023-05-21T19:44:15.415Z,9.95
2023-05-21T19:46:42.661Z,9.73
2023-05-21T19:49:11.145Z,10.52
2023-05-21T19:51:38.401Z,13.02
2023-05-21T19:54:05.720Z,11.50
2023-05-21T19:56:32.857Z,14.23
2023-05-21T19:59:00.023Z,13.35
2023-05-21T20:01:29.026Z,11.00
2023-05-21T20:03:56.566Z,10.68
2023-05-21T20:06:23.859Z,11.75
2023-05-21T20:08:51.789Z,13.27
2023-05-21T20:11:19.267Z,13.18
2023-05-21T20:13:50.175Z,12.20
2023-05-21T20:16:18.411Z,12.00
2023-05-21T20:18:48.969Z,14.45
2023-05-21T20:21:20.209Z,11.40
2023-05-21T20:23:47.574Z,13.27
2023-05-21T20:26:15.463Z,12.27
2023-05-21T20:28:42.911Z,14.68
2023-05-21T20:31:11.245Z,11.23
2023-05-21T20:33:40.800Z,11.73
2023-05-21T20:36:08.221Z,12.30
2023-05-21T20:38:37.188Z,13.48
2023-05-21T20:41:05.189Z,12.05
2023-05-21T20:43:32.927Z,16.52
2023-05-21T20:46:00.277Z,12.07
2023-05-21T20:48:31.957Z,12.88
2023-05-21T20:51:00.276Z,12.02
2023-05-21T20:53:27.727Z,11.65
2023-05-21T20:55:55.063Z,12.35
2023-05-21T20:58:24.018Z,12.50
2023-05-21T21:00:51.473Z,13.20
2023-05-21T21:03:21.819Z,14.40
2023-05-21T21:05:49.207Z,13.27
2023-05-21T21:08:16.395Z,13.93
2023-05-21T21:10:46.704Z,16.00
2023-05-21T21:13:14.432Z,13.88
2023-05-21T21:15:43.680Z,11.98
2023-05-21T21:18:12.550Z,11.27
2023-05-21T21:20:41.285Z,13.75
2023-05-21T21:23:08.839Z,14.07
2023-05-21T21:25:36.220Z,13.68
2023-05-21T21:28:03.531Z,12.95
2023-05-21T21:30:30.883Z,11.48
2023-05-21T21:32:58.173Z,14.52
2023-05-21T21:35:25.442Z,13.43
2023-05-21T21:37:52.688Z,12.50
2023-05-21T21:40:19.831Z,16.13
2023-05-21T21:42:47.017Z,13.93
2023-05-21T21:45:14.240Z,15.70
2023-05-21T21:47:41.507Z,13.43
2023-05-21T21:50:09.007Z,11.98
2023-05-21T21:52:39.867Z,11.65
2023-05-21T21:55:08.840Z,12.93
2023-05-21T21:57:36.268Z,14.35
2023-05-21T22:00:11.147Z,11.50
2023-05-21T22:02:40.299Z,15.77
2023-05-21T22:05:08.731Z,11.63
2023-05-21T22:07:38.537Z,12.77
2023-05-21T22:10:06.308Z,12.02
2023-05-21T22:12:34.004Z,10.18
2023-05-21T22:15:05.778Z,15.82
2023-05-21T22:17:34.104Z,13.10
2023-05-21T22:20:01.635Z,12.60
2023-05-21T22:22:28.869Z,11.77
2023-05-21T22:24:56.524Z,11.55
2023-05-21T22:27:23.794Z,11.73
2023-05-21T22:29:51.068Z,13.85
2023-05-21T22:32:18.352Z,12.30
2023-05-21T22:34:45.822Z,17.65
2023-05-21T22:37:13.026Z,14.07
2023-05-21T22:39:40.299Z,14.68
2023-05-21T22:42:07.579Z,15.30
2023-05-21T22:44:34.933Z,12.40
2023-05-21T22:47:03.711Z,11.35
2023-05-21T22:49:32.724Z,12.85
2023-05-21T22:52:05.273Z,12.55
2023-05-21T22:54:33.074Z,12.07
2023-05-21T22:57:01.148Z,11.68
2023-05-21T22:59:32.863Z,12.70
2023-05-21T23:02:00.091Z,12.77
2023-05-21T23:04:43.293Z,12.30
2023-05-21T23:07:11.746Z,12.50
2023-05-21T23:09:39.356Z,12.93
2023-05-21T23:12:06.809Z,12.68
2023-05-21T23:14:34.049Z,12.77
2023-05-21T23:17:04.545Z,21.95
2023-05-21T23:19:32.880Z,11.95
2023-05-21T23:22:00.524Z,11.77
2023-05-21T23:24:29.406Z,14.00
2023-05-21T23:27:01.743Z,14.43
2023-05-21T23:29:29.501Z,13.68
2023-05-21T23:31:56.928Z,14.73
2023-05-21T23:34:24.851Z,14.70
2023-05-21T23:36:52.334Z,16.55
2023-05-21T23:39:19.525Z,15.55
2023-05-21T23:41:46.843Z,12.05
2023-05-21T23:44:15.443Z,17.05
2023-05-21T23:46:45.391Z,13.90
2023-05-21T23:49:12.586Z,12.70
2023-05-21T23:51:40.167Z,10.98
2023-05-21T23:54:08.211Z,16.42
2023-05-21T23:56:35.530Z,12.93
2023-05-21T23:59:02.766Z,14.70
